Chambersburg, Indiana
Current Conditions -  °F | °C
As of 10:55 PM on Saturday 22 Nov 2014 (Local Time) from KHNB Reporting Station
Overcast Overcast  
Wind Chill: 55°   Ceiling: 6500
Heat Index: 55°   Visibility: 10mi
Dew Point: 36°   Wind: 8mph
Humidity: 47%   Direction: 170°S
Pressure: 30.02"   Gusts: NA
Location:  38.5454°N, 86.4243°W
Report Text: KHNB 230355Z AUTO 17007KT 10SM BKN065 OVC120 13/02 A3002 RMK AO1
Loading
Personal Weather Stations






























Interactive Weather Map New forecast layout! Learn more

10-Day Weather Forecast

Advertisements
Track Severe Weather on mobile